createdAt,value
2022-08-27T00:01:19.052Z,78.37
2022-08-27T00:03:46.756Z,78.53
2022-08-27T00:06:19.164Z,78.70
2022-08-27T00:08:47.350Z,78.85
2022-08-27T00:11:14.390Z,78.74
2022-08-27T00:13:41.677Z,78.68
2022-08-27T00:16:11.123Z,78.88
2022-08-27T00:18:38.871Z,79.19
2022-08-27T00:21:06.974Z,79.10
2022-08-27T00:23:34.568Z,78.79
2022-08-27T00:26:01.695Z,79.08
2022-08-27T00:28:29.681Z,78.95
2022-08-27T00:30:56.576Z,78.94
2022-08-27T00:33:23.417Z,79.14
2022-08-27T00:35:50.409Z,78.99
2022-08-27T00:38:17.810Z,78.51
2022-08-27T00:40:44.446Z,78.54
2022-08-27T00:43:11.311Z,78.38
2022-08-27T00:45:43.347Z,78.54
2022-08-27T00:48:15.245Z,78.30
2022-08-27T00:50:52.607Z,78.58
2022-08-27T00:53:29.677Z,78.70
2022-08-27T00:56:02.481Z,78.30
2022-08-27T00:58:42.104Z,78.66
2022-08-27T01:01:11.410Z,78.87
2022-08-27T01:03:39.165Z,78.93
2022-08-27T01:06:10.954Z,78.88
2022-08-27T01:09:02.865Z,78.68
2022-08-27T01:11:29.617Z,79.11
2022-08-27T01:13:59.523Z,79.12
2022-08-27T01:16:33.627Z,79.32
2022-08-27T01:19:00.989Z,79.36
2022-08-27T01:21:51.282Z,78.98
2022-08-27T01:24:35.870Z,79.16
2022-08-27T01:27:04.929Z,79.36
2022-08-27T01:29:35.296Z,79.19
2022-08-27T01:32:16.210Z,79.53
2022-08-27T01:34:43.215Z,79.55
2022-08-27T01:37:10.997Z,79.52
2022-08-27T01:39:39.924Z,79.64
2022-08-27T01:42:11.789Z,79.72
2022-08-27T01:44:51.852Z,79.60
2022-08-27T01:47:21.860Z,79.96
2022-08-27T01:49:49.139Z,79.67
2022-08-27T01:52:19.188Z,80.09
2022-08-27T01:54:46.715Z,80.29
2022-08-27T01:57:14.662Z,79.76
2022-08-27T01:59:41.698Z,79.74
2022-08-27T02:02:09.103Z,80.20
2022-08-27T02:04:36.390Z,80.18
2022-08-27T02:07:03.505Z,80.45
2022-08-27T02:09:30.254Z,80.67
2022-08-27T02:11:57.552Z,80.60
2022-08-27T02:14:24.405Z,80.73
2022-08-27T02:16:52.391Z,80.56
2022-08-27T02:19:20.214Z,80.26
2022-08-27T02:21:47.212Z,79.83
2022-08-27T02:24:14.054Z,80.27
2022-08-27T02:26:40.891Z,79.92
2022-08-27T02:29:08.014Z,79.60
2022-08-27T02:31:35.057Z,79.71
2022-08-27T02:34:01.696Z,79.90
2022-08-27T02:36:28.638Z,79.91
2022-08-27T02:38:55.951Z,80.20
2022-08-27T02:41:23.228Z,80.10
2022-08-27T02:43:50.139Z,80.11
2022-08-27T02:46:17.028Z,79.94
2022-08-27T02:48:44.675Z,79.79
2022-08-27T02:51:11.591Z,79.74
2022-08-27T02:53:38.512Z,79.78
2022-08-27T02:56:06.920Z,80.01
2022-08-27T02:58:33.994Z,79.70
2022-08-27T03:01:02.462Z,79.73
2022-08-27T03:03:30.401Z,79.71
2022-08-27T03:05:58.709Z,79.33
2022-08-27T03:08:27.093Z,79.42
2022-08-27T03:10:57.338Z,78.81
2022-08-27T03:13:26.131Z,78.54
2022-08-27T03:15:53.709Z,78.45
2022-08-27T03:18:21.827Z,79.17
2022-08-27T03:20:53.698Z,79.43
2022-08-27T03:23:23.152Z,79.48
2022-08-27T03:25:55.445Z,78.98
2022-08-27T03:28:25.877Z,78.88
2022-08-27T03:30:55.175Z,79.54
2022-08-27T03:33:22.348Z,79.73
2022-08-27T03:35:51.878Z,79.43
2022-08-27T03:38:19.243Z,79.08
2022-08-27T03:40:46.249Z,79.65
2022-08-27T03:43:14.178Z,79.58
2022-08-27T03:45:49.865Z,79.15
2022-08-27T03:48:29.454Z,79.86
2022-08-27T03:50:56.062Z,79.88
2022-08-27T03:53:22.694Z,80.24
2022-08-27T03:55:49.706Z,80.32
2022-08-27T03:58:16.924Z,80.72
2022-08-27T04:00:43.640Z,80.68
2022-08-27T04:03:13.940Z,81.08
2022-08-27T04:05:45.278Z,81.03
2022-08-27T04:08:13.358Z,81.23
2022-08-27T04:10:41.568Z,81.44
2022-08-27T04:13:08.514Z,81.50
2022-08-27T04:15:35.127Z,81.80
2022-08-27T04:18:07.387Z,81.64
2022-08-27T04:20:35.808Z,81.49
2022-08-27T04:23:04.057Z,81.95
2022-08-27T04:25:31.055Z,81.75
2022-08-27T04:27:57.935Z,82.03
2022-08-27T04:30:24.784Z,82.15
2022-08-27T04:32:51.332Z,82.06
2022-08-27T04:35:17.992Z,82.22
2022-08-27T04:37:44.772Z,82.10
2022-08-27T04:40:11.699Z,82.26
2022-08-27T04:42:38.578Z,82.22
2022-08-27T04:45:05.820Z,82.45
2022-08-27T04:47:32.582Z,82.56
2022-08-27T04:49:59.451Z,82.62
2022-08-27T04:52:26.133Z,82.44
2022-08-27T04:54:53.485Z,82.37
2022-08-27T04:57:20.891Z,82.43
2022-08-27T04:59:47.598Z,82.39
2022-08-27T05:02:14.783Z,82.34
2022-08-27T05:04:41.414Z,82.63
2022-08-27T05:07:09.371Z,82.91
2022-08-27T05:09:36.704Z,82.93
2022-08-27T05:12:03.633Z,82.52
2022-08-27T05:14:30.680Z,82.68
2022-08-27T05:16:58.869Z,82.90
2022-08-27T05:19:26.102Z,82.67
2022-08-27T05:21:53.942Z,82.01
2022-08-27T05:24:21.488Z,82.47
2022-08-27T05:26:48.359Z,82.47
2022-08-27T05:29:15.817Z,82.56
2022-08-27T05:31:42.913Z,82.43
2022-08-27T05:34:16.457Z,82.57
2022-08-27T05:36:48.043Z,82.38
2022-08-27T05:39:16.972Z,82.12
2022-08-27T05:41:43.858Z,81.93
2022-08-27T05:44:39.028Z,81.93
2022-08-27T05:46:57.892Z,81.33
2022-08-27T05:49:24.504Z,81.41
2022-08-27T05:51:51.144Z,80.81
2022-08-27T05:54:19.848Z,80.71
2022-08-27T05:56:49.568Z,79.95
2022-08-27T05:59:35.402Z,79.45
2022-08-27T06:02:04.267Z,78.78
2022-08-27T06:04:30.849Z,78.06
2022-08-27T06:06:57.788Z,77.94
2022-08-27T06:09:28.983Z,76.95
2022-08-27T06:12:02.318Z,76.69
2022-08-27T06:14:30.198Z,76.62
2022-08-27T06:16:56.948Z,76.16
2022-08-27T06:19:23.817Z,75.77
2022-08-27T06:22:01.211Z,75.46
2022-08-27T06:24:39.032Z,74.94
2022-08-27T06:27:06.078Z,74.39
2022-08-27T06:29:35.253Z,73.74
2022-08-27T06:32:02.079Z,72.77
2022-08-27T06:34:28.646Z,72.84
2022-08-27T06:36:55.253Z,72.66
2022-08-27T06:39:21.938Z,71.36
2022-08-27T06:41:50.420Z,71.37
2022-08-27T06:44:17.405Z,71.01
2022-08-27T06:46:44.215Z,69.86
2022-08-27T06:49:12.307Z,69.17
2022-08-27T06:51:40.983Z,68.93
2022-08-27T06:54:12.205Z,69.11
2022-08-27T06:56:40.447Z,68.70
2022-08-27T06:59:11.637Z,68.03
2022-08-27T07:01:41.857Z,67.69
2022-08-27T07:04:11.719Z,67.21
2022-08-27T07:06:39.322Z,67.00
2022-08-27T07:09:07.553Z,66.35
2022-08-27T07:11:34.941Z,64.70
2022-08-27T07:14:01.927Z,64.66
2022-08-27T07:16:30.230Z,65.39
2022-08-27T07:19:03.849Z,63.96
2022-08-27T07:21:32.321Z,65.86
2022-08-27T07:23:59.804Z,67.66
2022-08-27T07:26:26.786Z,65.50
2022-08-27T07:28:53.614Z,64.48
2022-08-27T07:31:22.921Z,66.02
2022-08-27T07:33:52.975Z,66.01
2022-08-27T07:36:21.727Z,63.63
2022-08-27T07:38:55.571Z,64.26
2022-08-27T07:41:31.312Z,64.00
2022-08-27T07:44:19.249Z,63.58
2022-08-27T07:46:49.127Z,62.88
2022-08-27T07:49:17.744Z,62.22
2022-08-27T07:51:45.133Z,61.43
2022-08-27T07:54:12.195Z,61.23
2022-08-27T07:56:39.083Z,58.72
2022-08-27T07:59:05.655Z,60.64
2022-08-27T08:01:32.621Z,59.34
2022-08-27T08:03:59.302Z,60.48
2022-08-27T08:06:26.401Z,58.30
2022-08-27T08:08:53.271Z,60.59
2022-08-27T08:11:20.453Z,59.95
2022-08-27T08:13:47.946Z,59.72
2022-08-27T08:16:16.068Z,59.34
2022-08-27T08:18:42.699Z,57.96
2022-08-27T08:21:14.343Z,57.96
2022-08-27T08:23:42.466Z,58.05
2022-08-27T08:26:12.080Z,58.36
2022-08-27T08:28:40.135Z,58.76
2022-08-27T08:31:07.735Z,60.34
2022-08-27T08:33:35.479Z,58.26
2022-08-27T08:36:05.279Z,57.92
2022-08-27T08:38:31.980Z,57.90
2022-08-27T08:40:58.977Z,57.60
2022-08-27T08:43:30.363Z,55.17
2022-08-27T08:46:02.830Z,51.95
2022-08-27T08:48:30.934Z,51.23
2022-08-27T08:51:10.115Z,52.91
2022-08-27T08:53:45.777Z,50.07
2022-08-27T08:56:19.955Z,51.84
2022-08-27T08:59:37.366Z,54.31
2022-08-27T09:02:12.662Z,55.35
2022-08-27T09:04:41.208Z,57.05
2022-08-27T09:07:33.295Z,58.72
2022-08-27T09:10:14.783Z,57.76
2022-08-27T09:12:41.579Z,58.01
2022-08-27T09:15:11.371Z,57.09
2022-08-27T09:17:41.928Z,53.61
2022-08-27T09:20:12.542Z,54.01
2022-08-27T09:23:23.211Z,56.55
2022-08-27T09:25:49.957Z,55.43
2022-08-27T09:28:44.451Z,55.27
2022-08-27T09:31:21.245Z,58.14
2022-08-27T09:33:56.089Z,57.74
2022-08-27T09:36:24.477Z,58.08
2022-08-27T09:38:58.613Z,58.43
2022-08-27T09:41:32.197Z,59.11
2022-08-27T09:44:07.385Z,58.83
2022-08-27T09:46:34.037Z,59.89
2022-08-27T09:49:15.358Z,59.38
2022-08-27T09:51:44.861Z,58.13
2022-08-27T09:54:22.149Z,57.84
2022-08-27T09:56:49.539Z,58.01
2022-08-27T09:59:33.346Z,57.95
2022-08-27T10:02:14.650Z,58.61
2022-08-27T10:04:50.166Z,59.31
2022-08-27T10:07:36.298Z,56.19
2022-08-27T10:10:11.080Z,50.79
2022-08-27T10:12:52.723Z,48.36
2022-08-27T10:15:19.909Z,48.61
2022-08-27T10:18:23.205Z,51.30
2022-08-27T10:21:27.428Z,52.12
2022-08-27T10:24:19.858Z,52.79
2022-08-27T10:27:02.010Z,53.71
2022-08-27T10:29:45.707Z,53.85
2022-08-27T10:32:38.748Z,54.57
2022-08-27T10:35:28.626Z,55.88
2022-08-27T10:38:21.590Z,54.62
2022-08-27T10:40:58.561Z,53.45
2022-08-27T10:43:46.836Z,54.25
2022-08-27T10:46:34.575Z,54.56
2022-08-27T10:49:21.301Z,54.26
2022-08-27T10:51:59.003Z,53.12
2022-08-27T10:54:44.498Z,52.64
2022-08-27T10:57:57.738Z,52.68
2022-08-27T11:00:37.707Z,53.45
2022-08-27T11:03:12.291Z,54.12
2022-08-27T11:05:50.108Z,53.93
2022-08-27T11:08:27.819Z,52.75
2022-08-27T11:11:35.070Z,53.44
2022-08-27T11:13:53.476Z,52.77
2022-08-27T11:16:37.246Z,53.05
2022-08-27T11:19:10.581Z,53.57
2022-08-27T11:21:51.529Z,53.81
2022-08-27T11:24:38.996Z,53.60
2022-08-27T11:27:07.866Z,54.61
2022-08-27T11:29:48.724Z,53.46
2022-08-27T11:32:21.366Z,53.08
2022-08-27T11:34:59.294Z,56.01
2022-08-27T11:37:53.574Z,54.55
2022-08-27T11:40:50.788Z,54.94
2022-08-27T11:43:25.470Z,54.11
2022-08-27T11:45:56.430Z,54.04
2022-08-27T11:48:32.165Z,53.43
2022-08-27T11:51:03.022Z,52.92
2022-08-27T11:53:42.814Z,53.03
2022-08-27T11:56:38.849Z,53.57
2022-08-27T11:59:32.720Z,53.30
2022-08-27T12:02:26.159Z,53.88
2022-08-27T12:04:55.614Z,53.91
2022-08-27T12:07:29.733Z,54.36
2022-08-27T12:09:56.549Z,54.65
2022-08-27T12:12:54.115Z,52.68
2022-08-27T12:15:39.154Z,51.68
2022-08-27T12:18:17.818Z,52.19
2022-08-27T12:20:55.579Z,52.98
2022-08-27T12:23:44.010Z,52.74
2022-08-27T12:26:25.848Z,53.39
2022-08-27T12:29:24.363Z,53.17
2022-08-27T12:32:10.351Z,52.87
2022-08-27T12:34:44.842Z,53.56
2022-08-27T12:37:12.938Z,52.71
2022-08-27T12:39:44.263Z,51.98
2022-08-27T12:42:19.336Z,51.12
2022-08-27T12:45:04.851Z,51.06
2022-08-27T12:47:40.004Z,50.06
2022-08-27T12:50:12.036Z,51.66
2022-08-27T12:53:02.179Z,49.63
2022-08-27T12:55:55.866Z,50.33
2022-08-27T12:58:44.405Z,48.52
2022-08-27T13:01:24.547Z,48.02
2022-08-27T13:03:54.290Z,46.83
2022-08-27T13:06:26.633Z,46.48
2022-08-27T13:08:55.544Z,46.44
2022-08-27T13:11:55.840Z,47.29
2022-08-27T13:14:25.004Z,46.25
2022-08-27T13:16:57.704Z,45.13
2022-08-27T13:19:29.680Z,43.40
2022-08-27T13:21:57.477Z,42.36
2022-08-27T13:24:44.604Z,42.89
2022-08-27T13:27:11.994Z,43.40
2022-08-27T13:29:40.594Z,44.39
2022-08-27T13:32:07.723Z,44.59
2022-08-27T13:34:38.561Z,47.20
2022-08-27T13:37:27.255Z,48.60
2022-08-27T13:39:56.324Z,47.84
2022-08-27T13:42:25.140Z,46.63
2022-08-27T13:44:56.574Z,48.27
2022-08-27T13:47:26.494Z,48.01
2022-08-27T13:50:04.254Z,48.19
2022-08-27T13:52:36.595Z,49.07
2022-08-27T13:55:10.559Z,48.82
2022-08-27T13:57:48.879Z,49.47
2022-08-27T14:00:31.810Z,49.10
2022-08-27T14:03:00.963Z,49.43
2022-08-27T14:05:32.462Z,49.90
2022-08-27T14:08:15.556Z,50.54
2022-08-27T14:10:47.561Z,50.21
2022-08-27T14:13:17.191Z,49.31
2022-08-27T14:15:49.951Z,50.17
2022-08-27T14:18:58.366Z,49.57
2022-08-27T14:21:26.089Z,49.76
2022-08-27T14:23:54.102Z,49.78
2022-08-27T14:26:35.547Z,49.15
2022-08-27T14:29:02.084Z,49.86
2022-08-27T14:31:28.896Z,50.68
2022-08-27T14:33:55.609Z,50.14
2022-08-27T14:36:29.078Z,49.78
2022-08-27T14:38:56.729Z,49.62
2022-08-27T14:41:24.804Z,49.73
2022-08-27T14:43:51.494Z,49.75
2022-08-27T14:46:33.575Z,49.44
2022-08-27T14:49:01.943Z,49.01
2022-08-27T14:51:31.421Z,48.93
2022-08-27T14:53:59.047Z,48.69
2022-08-27T14:56:27.058Z,48.46
2022-08-27T14:58:53.779Z,49.15
2022-08-27T15:01:24.197Z,52.44
2022-08-27T15:03:51.467Z,51.99
2022-08-27T15:06:19.495Z,53.10
2022-08-27T15:08:49.491Z,53.32
2022-08-27T15:11:19.475Z,53.07
2022-08-27T15:13:48.775Z,52.27
2022-08-27T15:16:27.981Z,53.92
2022-08-27T15:19:11.434Z,53.14
2022-08-27T15:21:39.939Z,52.50
2022-08-27T15:24:17.849Z,52.94
2022-08-27T15:26:44.457Z,53.24
2022-08-27T15:29:11.248Z,53.58
2022-08-27T15:31:39.323Z,52.47
2022-08-27T15:34:06.636Z,53.80
2022-08-27T15:36:33.969Z,54.68
2022-08-27T15:39:00.915Z,55.14
2022-08-27T15:41:29.388Z,54.25
2022-08-27T15:43:57.009Z,52.57
2022-08-27T15:46:25.539Z,52.76
2022-08-27T15:48:52.921Z,51.20
2022-08-27T15:51:26.497Z,50.32
2022-08-27T15:53:53.644Z,50.49
2022-08-27T15:56:20.606Z,51.16
2022-08-27T15:58:47.412Z,51.23
2022-08-27T16:01:18.560Z,51.40
2022-08-27T16:03:46.433Z,51.92
2022-08-27T16:06:17.554Z,52.68
2022-08-27T16:08:46.917Z,52.66
2022-08-27T16:11:13.747Z,52.18
2022-08-27T16:13:41.484Z,53.90
2022-08-27T16:16:09.034Z,52.76
2022-08-27T16:18:36.738Z,54.53
2022-08-27T16:21:04.531Z,53.85
2022-08-27T16:23:32.260Z,53.73
2022-08-27T16:25:58.974Z,54.49
2022-08-27T16:28:25.680Z,55.24
2022-08-27T16:30:54.129Z,55.30
2022-08-27T16:33:22.737Z,55.02
2022-08-27T16:35:52.533Z,55.26
2022-08-27T16:38:19.696Z,55.67
2022-08-27T16:40:53.042Z,55.43
2022-08-27T16:43:25.660Z,56.93
2022-08-27T16:45:54.734Z,56.76
2022-08-27T16:48:40.962Z,57.27
2022-08-27T16:51:13.631Z,57.64
2022-08-27T16:53:42.714Z,58.29
2022-08-27T16:56:09.490Z,58.25
2022-08-27T16:58:36.960Z,58.09
2022-08-27T17:01:08.704Z,58.57
2022-08-27T17:04:07.048Z,59.06
2022-08-27T17:06:30.287Z,59.18
2022-08-27T17:08:57.591Z,59.56
2022-08-27T17:11:27.794Z,59.85
2022-08-27T17:13:58.886Z,59.62
2022-08-27T17:16:29.622Z,60.15
2022-08-27T17:18:58.491Z,60.19
2022-08-27T17:21:29.714Z,60.20
2022-08-27T17:23:59.391Z,60.58
2022-08-27T17:26:26.411Z,60.99
2022-08-27T17:28:53.641Z,60.67
2022-08-27T17:31:30.133Z,61.10
2022-08-27T17:33:59.721Z,61.66
2022-08-27T17:36:28.725Z,61.65
2022-08-27T17:38:55.973Z,61.63
2022-08-27T17:41:50.089Z,60.69
2022-08-27T17:44:29.013Z,60.84
2022-08-27T17:47:02.986Z,60.21
2022-08-27T17:49:33.994Z,59.90
2022-08-27T17:52:07.038Z,59.78
2022-08-27T17:54:46.701Z,59.42
2022-08-27T17:57:29.288Z,59.82
2022-08-27T18:00:01.492Z,59.78
2022-08-27T18:02:38.444Z,60.18
2022-08-27T18:05:08.816Z,60.24
2022-08-27T18:07:39.770Z,60.27
2022-08-27T18:10:07.903Z,60.58
2022-08-27T18:12:34.634Z,60.70
2022-08-27T18:15:14.488Z,60.67
2022-08-27T18:17:42.568Z,60.67
2022-08-27T18:20:13.283Z,61.12
2022-08-27T18:22:40.943Z,61.37
2022-08-27T18:25:16.774Z,61.22
2022-08-27T18:27:45.170Z,61.31
2022-08-27T18:30:12.856Z,61.34
2022-08-27T18:32:40.788Z,61.48
2022-08-27T18:35:14.689Z,61.86
2022-08-27T18:37:41.474Z,61.79
2022-08-27T18:40:09.760Z,62.10
2022-08-27T18:42:38.243Z,62.07
2022-08-27T18:45:17.636Z,62.45
2022-08-27T18:47:45.180Z,62.27
2022-08-27T18:50:17.565Z,62.59
2022-08-27T18:52:46.202Z,63.00
2022-08-27T18:55:15.416Z,63.27
2022-08-27T18:57:42.177Z,63.40
2022-08-27T19:00:11.322Z,63.77
2022-08-27T19:02:38.489Z,64.12
2022-08-27T19:05:06.727Z,63.90
2022-08-27T19:07:33.581Z,64.19
2022-08-27T19:10:00.209Z,64.44
2022-08-27T19:12:26.867Z,64.84
2022-08-27T19:14:53.477Z,64.88
2022-08-27T19:17:26.296Z,65.16
2022-08-27T19:19:54.054Z,64.78
2022-08-27T19:22:21.130Z,64.85
2022-08-27T19:24:50.000Z,65.67
2022-08-27T19:27:24.949Z,65.52
2022-08-27T19:29:52.213Z,66.09
2022-08-27T19:32:18.893Z,66.39
2022-08-27T19:34:45.874Z,66.55
2022-08-27T19:37:18.917Z,66.08
2022-08-27T19:39:45.939Z,65.62
2022-08-27T19:42:12.552Z,65.88
2022-08-27T19:44:39.180Z,65.70
2022-08-27T19:47:08.924Z,66.08
2022-08-27T19:49:35.887Z,66.12
2022-08-27T19:52:06.184Z,65.81
2022-08-27T19:54:43.138Z,65.79
2022-08-27T19:57:18.869Z,66.17
2022-08-27T19:59:45.723Z,66.02
2022-08-27T20:02:12.612Z,66.52
2022-08-27T20:04:55.977Z,66.34
2022-08-27T20:07:26.729Z,66.18
2022-08-27T20:09:53.258Z,65.80
2022-08-27T20:12:21.825Z,66.47
2022-08-27T20:14:51.628Z,66.63
2022-08-27T20:17:18.716Z,67.01
2022-08-27T20:19:45.383Z,67.29
2022-08-27T20:22:15.059Z,67.26
2022-08-27T20:24:42.077Z,67.08
2022-08-27T20:27:08.737Z,67.48
2022-08-27T20:29:35.955Z,67.62
2022-08-27T20:32:04.150Z,67.66
2022-08-27T20:34:32.639Z,68.00
2022-08-27T20:37:01.638Z,68.29
2022-08-27T20:39:28.463Z,68.53
2022-08-27T20:41:55.078Z,68.82
2022-08-27T20:44:21.663Z,68.82
2022-08-27T20:46:51.640Z,69.00
2022-08-27T20:49:18.898Z,69.29
2022-08-27T20:51:51.122Z,68.75
2022-08-27T20:54:30.143Z,68.99
2022-08-27T20:56:56.782Z,68.95
2022-08-27T20:59:41.715Z,69.33
2022-08-27T21:02:11.386Z,68.94
2022-08-27T21:04:45.934Z,69.47
2022-08-27T21:07:13.725Z,69.50
2022-08-27T21:09:55.588Z,69.45
2022-08-27T21:12:25.734Z,69.11
2022-08-27T21:14:54.761Z,69.21
2022-08-27T21:17:25.114Z,69.71
2022-08-27T21:19:52.338Z,69.90
2022-08-27T21:22:20.068Z,69.92
2022-08-27T21:24:47.604Z,69.79
2022-08-27T21:27:15.610Z,69.61
2022-08-27T21:29:44.545Z,69.96
2022-08-27T21:32:12.170Z,69.77
2022-08-27T21:34:39.090Z,69.52
2022-08-27T21:37:05.678Z,69.58
2022-08-27T21:39:34.241Z,69.63
2022-08-27T21:42:01.833Z,69.67
2022-08-27T21:44:30.057Z,69.27
2022-08-27T21:46:57.734Z,69.75
2022-08-27T21:49:24.358Z,69.78
2022-08-27T21:51:50.962Z,69.93
2022-08-27T21:54:17.733Z,70.00
2022-08-27T21:56:44.637Z,70.10
2022-08-27T21:59:11.405Z,70.07
2022-08-27T22:01:38.135Z,70.79
2022-08-27T22:04:04.949Z,71.22
2022-08-27T22:06:31.543Z,71.38
2022-08-27T22:08:58.150Z,71.68
2022-08-27T22:11:25.780Z,71.66
2022-08-27T22:13:53.284Z,71.58
2022-08-27T22:16:20.281Z,71.82
2022-08-27T22:18:47.543Z,71.75
2022-08-27T22:21:21.160Z,71.62
2022-08-27T22:23:51.571Z,71.87
2022-08-27T22:26:19.323Z,71.85
2022-08-27T22:28:46.100Z,72.13
2022-08-27T22:31:13.036Z,72.19
2022-08-27T22:33:39.740Z,72.01
2022-08-27T22:36:06.657Z,72.21
2022-08-27T22:38:33.936Z,72.17
2022-08-27T22:41:03.661Z,72.59
2022-08-27T22:43:30.370Z,72.63
2022-08-27T22:45:57.071Z,72.81
2022-08-27T22:48:23.914Z,73.00
2022-08-27T22:50:50.501Z,73.26
2022-08-27T22:53:17.138Z,73.09
2022-08-27T22:55:47.983Z,73.13
2022-08-27T22:58:17.981Z,73.35
2022-08-27T23:00:45.345Z,73.33
2022-08-27T23:03:19.117Z,73.60
2022-08-27T23:05:45.756Z,73.53
2022-08-27T23:08:15.891Z,73.59
2022-08-27T23:10:44.041Z,73.69
2022-08-27T23:13:11.979Z,73.92
2022-08-27T23:15:39.246Z,74.10
2022-08-27T23:18:06.675Z,74.01
2022-08-27T23:20:34.344Z,73.83
2022-08-27T23:23:01.253Z,73.94
2022-08-27T23:25:48.668Z,73.80
2022-08-27T23:28:16.201Z,73.93
2022-08-27T23:30:44.904Z,73.98
2022-08-27T23:33:13.394Z,74.07
2022-08-27T23:35:43.358Z,74.28
2022-08-27T23:38:10.862Z,74.53
2022-08-27T23:40:37.608Z,74.73
2022-08-27T23:43:04.293Z,74.94
2022-08-27T23:45:30.937Z,75.10
2022-08-27T23:47:57.557Z,75.06
2022-08-27T23:50:29.059Z,75.22
2022-08-27T23:53:01.803Z,75.32
2022-08-27T23:55:33.502Z,75.42
2022-08-27T23:58:01.952Z,75.57
